sensor_id;sensor_type;location;lat;lon;timestamp;temperature;humidity
8095;DHT22;4090;49.270;8.696;2023-07-22T00:02:30;21.90;99.90
8095;DHT22;4090;49.270;8.696;2023-07-22T00:05:13;21.80;99.90
8095;DHT22;4090;49.270;8.696;2023-07-22T00:07:55;21.80;99.90
8095;DHT22;4090;49.270;8.696;2023-07-22T00:10:40;21.80;99.90
8095;DHT22;4090;49.270;8.696;2023-07-22T00:13:23;21.80;99.90
8095;DHT22;4090;49.270;8.696;2023-07-22T00:16:07;21.80;99.90
8095;DHT22;4090;49.270;8.696;2023-07-22T00:18:49;21.70;99.90
8095;DHT22;4090;49.270;8.696;2023-07-22T00:21:33;21.70;99.90
8095;DHT22;4090;49.270;8.696;2023-07-22T00:24:15;21.70;99.90
8095;DHT22;4090;49.270;8.696;2023-07-22T00:26:57;21.70;99.90
8095;DHT22;4090;49.270;8.696;2023-07-22T00:29:39;21.70;99.90
8095;DHT22;4090;49.270;8.696;2023-07-22T00:32:21;21.70;99.90
8095;DHT22;4090;49.270;8.696;2023-07-22T00:35:03;21.70;99.90
8095;DHT22;4090;49.270;8.696;2023-07-22T00:37:47;21.60;99.90
8095;DHT22;4090;49.270;8.696;2023-07-22T00:40:29;21.60;99.90
8095;DHT22;4090;49.270;8.696;2023-07-22T00:43:12;21.60;99.90
8095;DHT22;4090;49.270;8.696;2023-07-22T00:45:54;21.60;99.90
8095;DHT22;4090;49.270;8.696;2023-07-22T00:48:36;21.60;99.90
8095;DHT22;4090;49.270;8.696;2023-07-22T00:51:19;21.60;99.90
8095;DHT22;4090;49.270;8.696;2023-07-22T00:54:04;21.50;99.90
8095;DHT22;4090;49.270;8.696;2023-07-22T00:56:47;21.50;99.90
8095;DHT22;4090;49.270;8.696;2023-07-22T00:59:30;21.50;99.90
8095;DHT22;4090;49.270;8.696;2023-07-22T01:02:12;21.60;99.90
8095;DHT22;4090;49.270;8.696;2023-07-22T01:04:54;21.60;99.90
8095;DHT22;4090;49.270;8.696;2023-07-22T01:07:36;21.60;99.90
8095;DHT22;4090;49.270;8.696;2023-07-22T01:10:21;21.60;99.90
8095;DHT22;4090;49.270;8.696;2023-07-22T01:13:03;21.60;99.90
8095;DHT22;4090;49.270;8.696;2023-07-22T01:15:45;21.50;99.90
8095;DHT22;4090;49.270;8.696;2023-07-22T01:18:28;21.50;99.90
8095;DHT22;4090;49.270;8.696;2023-07-22T01:21:10;21.50;99.90
8095;DHT22;4090;49.270;8.696;2023-07-22T01:23:54;21.50;99.90
8095;DHT22;4090;49.270;8.696;2023-07-22T01:26:38;21.50;99.90
8095;DHT22;4090;49.270;8.696;2023-07-22T01:29:21;21.50;99.90
8095;DHT22;4090;49.270;8.696;2023-07-22T01:32:04;21.50;99.90
8095;DHT22;4090;49.270;8.696;2023-07-22T01:34:47;21.50;99.90
8095;DHT22;4090;49.270;8.696;2023-07-22T01:37:29;21.40;99.90
8095;DHT22;4090;49.270;8.696;2023-07-22T01:40:13;21.40;99.90
8095;DHT22;4090;49.270;8.696;2023-07-22T01:42:55;21.40;99.90
8095;DHT22;4090;49.270;8.696;2023-07-22T01:45:37;21.40;99.90
8095;DHT22;4090;49.270;8.696;2023-07-22T01:48:20;21.40;99.90
8095;DHT22;4090;49.270;8.696;2023-07-22T01:51:04;21.40;99.90
8095;DHT22;4090;49.270;8.696;2023-07-22T01:53:46;21.30;99.90
8095;DHT22;4090;49.270;8.696;2023-07-22T01:56:29;21.30;99.90
8095;DHT22;4090;49.270;8.696;2023-07-22T01:59:11;21.30;99.90
8095;DHT22;4090;49.270;8.696;2023-07-22T02:01:53;21.40;99.90
8095;DHT22;4090;49.270;8.696;2023-07-22T02:04:35;21.40;99.90
8095;DHT22;4090;49.270;8.696;2023-07-22T02:07:16;21.40;99.90
8095;DHT22;4090;49.270;8.696;2023-07-22T02:09:58;21.30;99.90
8095;DHT22;4090;49.270;8.696;2023-07-22T02:12:42;21.40;99.90
8095;DHT22;4090;49.270;8.696;2023-07-22T02:15:24;21.30;99.90
8095;DHT22;4090;49.270;8.696;2023-07-22T02:18:06;21.30;99.90
8095;DHT22;4090;49.270;8.696;2023-07-22T02:20:48;21.30;99.90
8095;DHT22;4090;49.270;8.696;2023-07-22T02:23:30;21.30;99.90
8095;DHT22;4090;49.270;8.696;2023-07-22T02:26:12;21.30;99.90
8095;DHT22;4090;49.270;8.696;2023-07-22T02:28:55;21.30;99.90
8095;DHT22;4090;49.270;8.696;2023-07-22T02:31:37;21.30;99.90
8095;DHT22;4090;49.270;8.696;2023-07-22T02:34:20;21.30;99.90
8095;DHT22;4090;49.270;8.696;2023-07-22T02:37:02;21.30;99.90
8095;DHT22;4090;49.270;8.696;2023-07-22T02:39:44;21.30;99.90
8095;DHT22;4090;49.270;8.696;2023-07-22T02:42:26;21.20;99.90
8095;DHT22;4090;49.270;8.696;2023-07-22T02:45:10;21.20;99.90
8095;DHT22;4090;49.270;8.696;2023-07-22T02:47:53;21.30;99.90
8095;DHT22;4090;49.270;8.696;2023-07-22T02:50:35;21.30;99.90
8095;DHT22;4090;49.270;8.696;2023-07-22T02:53:17;21.20;99.90
8095;DHT22;4090;49.270;8.696;2023-07-22T02:55:59;21.30;99.90
8095;DHT22;4090;49.270;8.696;2023-07-22T02:58:42;21.30;99.90
8095;DHT22;4090;49.270;8.696;2023-07-22T03:01:25;21.20;99.90
8095;DHT22;4090;49.270;8.696;2023-07-22T03:04:07;21.20;99.90
8095;DHT22;4090;49.270;8.696;2023-07-22T03:06:50;21.20;99.90
8095;DHT22;4090;49.270;8.696;2023-07-22T03:09:33;21.20;99.90
8095;DHT22;4090;49.270;8.696;2023-07-22T03:12:14;21.20;99.90
8095;DHT22;4090;49.270;8.696;2023-07-22T03:14:56;21.20;99.90
8095;DHT22;4090;49.270;8.696;2023-07-22T03:17:40;21.20;99.90
8095;DHT22;4090;49.270;8.696;2023-07-22T03:20:23;21.30;99.90
8095;DHT22;4090;49.270;8.696;2023-07-22T03:23:05;21.30;99.90
8095;DHT22;4090;49.270;8.696;2023-07-22T03:25:48;21.30;99.90
8095;DHT22;4090;49.270;8.696;2023-07-22T03:28:30;21.20;99.90
8095;DHT22;4090;49.270;8.696;2023-07-22T03:31:12;21.20;99.90
8095;DHT22;4090;49.270;8.696;2023-07-22T03:33:55;21.20;99.90
8095;DHT22;4090;49.270;8.696;2023-07-22T03:36:37;21.20;99.90
8095;DHT22;4090;49.270;8.696;2023-07-22T03:39:19;21.20;99.90
8095;DHT22;4090;49.270;8.696;2023-07-22T03:42:01;21.10;99.90
8095;DHT22;4090;49.270;8.696;2023-07-22T03:44:44;21.10;99.90
8095;DHT22;4090;49.270;8.696;2023-07-22T03:47:26;21.20;99.90
8095;DHT22;4090;49.270;8.696;2023-07-22T03:50:09;21.10;99.90
8095;DHT22;4090;49.270;8.696;2023-07-22T03:52:52;21.10;99.90
8095;DHT22;4090;49.270;8.696;2023-07-22T03:55:34;21.10;99.90
8095;DHT22;4090;49.270;8.696;2023-07-22T03:58:15;21.10;99.90
8095;DHT22;4090;49.270;8.696;2023-07-22T04:00:57;21.00;99.90
8095;DHT22;4090;49.270;8.696;2023-07-22T04:03:39;21.00;99.90
8095;DHT22;4090;49.270;8.696;2023-07-22T04:06:22;21.00;99.90
8095;DHT22;4090;49.270;8.696;2023-07-22T04:09:04;21.00;99.90
8095;DHT22;4090;49.270;8.696;2023-07-22T04:11:46;21.00;99.90
8095;DHT22;4090;49.270;8.696;2023-07-22T04:14:28;21.00;99.90
8095;DHT22;4090;49.270;8.696;2023-07-22T04:17:13;21.00;99.90
8095;DHT22;4090;49.270;8.696;2023-07-22T04:19:56;21.00;99.90
8095;DHT22;4090;49.270;8.696;2023-07-22T04:22:39;20.90;99.90
8095;DHT22;4090;49.270;8.696;2023-07-22T04:25:21;20.90;99.90
8095;DHT22;4090;49.270;8.696;2023-07-22T04:28:03;20.90;99.90
8095;DHT22;4090;49.270;8.696;2023-07-22T04:30:54;20.90;99.90
8095;DHT22;4090;49.270;8.696;2023-07-22T04:33:36;20.90;99.90
8095;DHT22;4090;49.270;8.696;2023-07-22T04:36:18;20.90;99.90
8095;DHT22;4090;49.270;8.696;2023-07-22T04:39:02;20.90;99.90
8095;DHT22;4090;49.270;8.696;2023-07-22T04:41:45;20.90;99.90
8095;DHT22;4090;49.270;8.696;2023-07-22T04:44:27;20.90;99.90
8095;DHT22;4090;49.270;8.696;2023-07-22T04:47:09;20.80;99.90
8095;DHT22;4090;49.270;8.696;2023-07-22T04:49:51;20.80;99.90
8095;DHT22;4090;49.270;8.696;2023-07-22T04:52:33;20.70;99.90
8095;DHT22;4090;49.270;8.696;2023-07-22T04:55:16;20.70;99.90
8095;DHT22;4090;49.270;8.696;2023-07-22T04:57:58;20.60;99.90
8095;DHT22;4090;49.270;8.696;2023-07-22T05:00:40;20.60;99.90
8095;DHT22;4090;49.270;8.696;2023-07-22T05:03:23;20.60;99.90
8095;DHT22;4090;49.270;8.696;2023-07-22T05:06:06;20.60;99.90
8095;DHT22;4090;49.270;8.696;2023-07-22T05:08:49;20.60;99.90
8095;DHT22;4090;49.270;8.696;2023-07-22T05:11:32;20.60;99.90
8095;DHT22;4090;49.270;8.696;2023-07-22T05:14:14;20.60;99.90
8095;DHT22;4090;49.270;8.696;2023-07-22T05:16:56;20.60;99.90
8095;DHT22;4090;49.270;8.696;2023-07-22T05:19:38;20.60;99.90
8095;DHT22;4090;49.270;8.696;2023-07-22T05:22:20;20.60;99.90
8095;DHT22;4090;49.270;8.696;2023-07-22T05:25:02;20.60;99.90
8095;DHT22;4090;49.270;8.696;2023-07-22T05:27:46;20.70;99.90
8095;DHT22;4090;49.270;8.696;2023-07-22T05:30:28;20.70;99.90
8095;DHT22;4090;49.270;8.696;2023-07-22T05:33:10;20.70;99.90
8095;DHT22;4090;49.270;8.696;2023-07-22T05:35:52;20.70;99.90
8095;DHT22;4090;49.270;8.696;2023-07-22T05:38:33;20.70;99.90
8095;DHT22;4090;49.270;8.696;2023-07-22T05:41:16;20.70;99.90
8095;DHT22;4090;49.270;8.696;2023-07-22T05:43:59;20.80;99.90
8095;DHT22;4090;49.270;8.696;2023-07-22T05:46:41;20.80;99.90
8095;DHT22;4090;49.270;8.696;2023-07-22T05:49:23;20.80;99.90
8095;DHT22;4090;49.270;8.696;2023-07-22T05:52:06;20.80;99.90
8095;DHT22;4090;49.270;8.696;2023-07-22T05:54:48;20.80;99.90
8095;DHT22;4090;49.270;8.696;2023-07-22T05:57:30;20.80;99.90
8095;DHT22;4090;49.270;8.696;2023-07-22T06:00:14;20.80;99.90
8095;DHT22;4090;49.270;8.696;2023-07-22T06:02:56;20.80;99.90
8095;DHT22;4090;49.270;8.696;2023-07-22T06:05:38;20.80;99.90
8095;DHT22;4090;49.270;8.696;2023-07-22T06:08:20;20.80;99.90
8095;DHT22;4090;49.270;8.696;2023-07-22T06:11:02;20.80;99.90
8095;DHT22;4090;49.270;8.696;2023-07-22T06:13:43;20.80;99.90
8095;DHT22;4090;49.270;8.696;2023-07-22T06:16:27;20.80;99.90
8095;DHT22;4090;49.270;8.696;2023-07-22T06:19:09;20.80;99.90
8095;DHT22;4090;49.270;8.696;2023-07-22T06:21:50;20.80;99.90
8095;DHT22;4090;49.270;8.696;2023-07-22T06:24:32;20.80;99.90
8095;DHT22;4090;49.270;8.696;2023-07-22T06:27:14;20.80;99.90
8095;DHT22;4090;49.270;8.696;2023-07-22T06:29:56;20.80;99.90
8095;DHT22;4090;49.270;8.696;2023-07-22T06:32:40;20.80;99.90
8095;DHT22;4090;49.270;8.696;2023-07-22T06:35:22;20.80;99.90
8095;DHT22;4090;49.270;8.696;2023-07-22T06:38:03;20.80;99.90
8095;DHT22;4090;49.270;8.696;2023-07-22T06:40:45;20.80;99.90
8095;DHT22;4090;49.270;8.696;2023-07-22T06:43:27;20.80;99.90
8095;DHT22;4090;49.270;8.696;2023-07-22T06:46:09;20.80;99.90
8095;DHT22;4090;49.270;8.696;2023-07-22T06:48:52;20.90;99.90
8095;DHT22;4090;49.270;8.696;2023-07-22T06:51:34;20.80;99.90
8095;DHT22;4090;49.270;8.696;2023-07-22T06:54:16;20.80;99.90
8095;DHT22;4090;49.270;8.696;2023-07-22T06:56:58;20.80;99.90
8095;DHT22;4090;49.270;8.696;2023-07-22T06:59:40;20.90;99.90
8095;DHT22;4090;49.270;8.696;2023-07-22T07:02:22;20.90;99.90
8095;DHT22;4090;49.270;8.696;2023-07-22T07:05:06;20.90;99.90
8095;DHT22;4090;49.270;8.696;2023-07-22T07:07:49;20.80;99.90
8095;DHT22;4090;49.270;8.696;2023-07-22T07:10:31;20.80;99.90
8095;DHT22;4090;49.270;8.696;2023-07-22T07:13:12;20.80;99.90
8095;DHT22;4090;49.270;8.696;2023-07-22T07:15:54;20.80;99.90
8095;DHT22;4090;49.270;8.696;2023-07-22T07:18:36;20.80;99.90
8095;DHT22;4090;49.270;8.696;2023-07-22T07:21:19;20.90;99.90
8095;DHT22;4090;49.270;8.696;2023-07-22T07:24:01;20.80;99.90
8095;DHT22;4090;49.270;8.696;2023-07-22T07:26:43;20.90;99.90
8095;DHT22;4090;49.270;8.696;2023-07-22T07:29:25;20.80;99.90
8095;DHT22;4090;49.270;8.696;2023-07-22T07:32:08;20.80;99.90
8095;DHT22;4090;49.270;8.696;2023-07-22T07:34:49;20.90;99.90
8095;DHT22;4090;49.270;8.696;2023-07-22T07:37:33;20.90;99.90
8095;DHT22;4090;49.270;8.696;2023-07-22T07:40:15;20.90;99.90
8095;DHT22;4090;49.270;8.696;2023-07-22T07:42:57;20.90;99.90
8095;DHT22;4090;49.270;8.696;2023-07-22T07:45:39;20.90;99.90
8095;DHT22;4090;49.270;8.696;2023-07-22T07:48:21;20.90;99.90
8095;DHT22;4090;49.270;8.696;2023-07-22T07:51:03;20.90;99.90
8095;DHT22;4090;49.270;8.696;2023-07-22T07:53:46;20.90;99.90
8095;DHT22;4090;49.270;8.696;2023-07-22T07:56:28;21.00;99.90
8095;DHT22;4090;49.270;8.696;2023-07-22T07:59:10;21.00;99.90
8095;DHT22;4090;49.270;8.696;2023-07-22T08:01:52;21.00;99.90
8095;DHT22;4090;49.270;8.696;2023-07-22T08:04:34;21.00;99.90
8095;DHT22;4090;49.270;8.696;2023-07-22T08:07:17;21.00;99.90
8095;DHT22;4090;49.270;8.696;2023-07-22T08:10:00;21.00;99.90
8095;DHT22;4090;49.270;8.696;2023-07-22T08:12:44;21.00;99.90
8095;DHT22;4090;49.270;8.696;2023-07-22T08:15:28;21.00;99.90
8095;DHT22;4090;49.270;8.696;2023-07-22T08:18:09;21.00;99.90
8095;DHT22;4090;49.270;8.696;2023-07-22T08:20:51;21.00;99.90
8095;DHT22;4090;49.270;8.696;2023-07-22T08:23:33;21.00;99.90
8095;DHT22;4090;49.270;8.696;2023-07-22T08:26:17;21.00;99.90
8095;DHT22;4090;49.270;8.696;2023-07-22T08:29:01;21.00;99.90
8095;DHT22;4090;49.270;8.696;2023-07-22T08:31:43;21.10;99.90
8095;DHT22;4090;49.270;8.696;2023-07-22T08:34:25;21.10;99.90
8095;DHT22;4090;49.270;8.696;2023-07-22T08:37:07;21.20;99.90
8095;DHT22;4090;49.270;8.696;2023-07-22T08:39:49;21.20;99.90
8095;DHT22;4090;49.270;8.696;2023-07-22T08:42:32;21.20;99.90
8095;DHT22;4090;49.270;8.696;2023-07-22T08:45:15;21.20;99.90
8095;DHT22;4090;49.270;8.696;2023-07-22T08:47:58;21.20;99.90
8095;DHT22;4090;49.270;8.696;2023-07-22T08:50:44;21.20;99.90
8095;DHT22;4090;49.270;8.696;2023-07-22T08:53:27;21.30;99.90
8095;DHT22;4090;49.270;8.696;2023-07-22T08:56:09;21.30;99.90
8095;DHT22;4090;49.270;8.696;2023-07-22T08:58:53;21.30;99.90
8095;DHT22;4090;49.270;8.696;2023-07-22T09:01:35;21.30;99.90
8095;DHT22;4090;49.270;8.696;2023-07-22T09:04:17;21.40;99.90
8095;DHT22;4090;49.270;8.696;2023-07-22T09:07:00;21.50;99.90
8095;DHT22;4090;49.270;8.696;2023-07-22T09:09:43;21.40;99.90
8095;DHT22;4090;49.270;8.696;2023-07-22T09:12:26;21.50;99.90
8095;DHT22;4090;49.270;8.696;2023-07-22T09:15:12;21.50;99.90
8095;DHT22;4090;49.270;8.696;2023-07-22T09:17:54;21.50;99.90
8095;DHT22;4090;49.270;8.696;2023-07-22T09:20:36;21.40;99.90
8095;DHT22;4090;49.270;8.696;2023-07-22T09:23:18;21.50;99.90
8095;DHT22;4090;49.270;8.696;2023-07-22T09:28:51;21.70;99.90
8095;DHT22;4090;49.270;8.696;2023-07-22T09:31:48;21.80;99.90
8095;DHT22;4090;49.270;8.696;2023-07-22T09:34:30;21.90;99.90
8095;DHT22;4090;49.270;8.696;2023-07-22T09:37:12;21.90;99.90
8095;DHT22;4090;49.270;8.696;2023-07-22T09:39:54;21.90;99.90
8095;DHT22;4090;49.270;8.696;2023-07-22T09:42:36;22.00;99.90
8095;DHT22;4090;49.270;8.696;2023-07-22T09:45:19;22.10;99.90
8095;DHT22;4090;49.270;8.696;2023-07-22T09:48:02;22.20;99.90
8095;DHT22;4090;49.270;8.696;2023-07-22T09:50:44;22.50;99.90
8095;DHT22;4090;49.270;8.696;2023-07-22T09:53:26;22.50;99.90
8095;DHT22;4090;49.270;8.696;2023-07-22T09:56:08;22.60;99.90
8095;DHT22;4090;49.270;8.696;2023-07-22T09:58:51;22.60;99.90
8095;DHT22;4090;49.270;8.696;2023-07-22T10:01:35;22.60;99.90
8095;DHT22;4090;49.270;8.696;2023-07-22T10:04:21;22.70;99.90
8095;DHT22;4090;49.270;8.696;2023-07-22T10:07:06;22.80;99.90
8095;DHT22;4090;49.270;8.696;2023-07-22T10:09:49;22.90;99.90
8095;DHT22;4090;49.270;8.696;2023-07-22T10:12:33;22.80;99.90
8095;DHT22;4090;49.270;8.696;2023-07-22T10:15:16;22.80;99.90
8095;DHT22;4090;49.270;8.696;2023-07-22T10:18:00;22.90;99.90
8095;DHT22;4090;49.270;8.696;2023-07-22T10:20:44;22.90;99.90
8095;DHT22;4090;49.270;8.696;2023-07-22T10:23:26;23.10;99.90
8095;DHT22;4090;49.270;8.696;2023-07-22T10:26:10;23.10;99.90
8095;DHT22;4090;49.270;8.696;2023-07-22T10:28:55;23.20;99.90
8095;DHT22;4090;49.270;8.696;2023-07-22T10:31:38;23.20;99.90
8095;DHT22;4090;49.270;8.696;2023-07-22T10:34:21;23.20;99.90
8095;DHT22;4090;49.270;8.696;2023-07-22T10:37:04;23.20;99.90
8095;DHT22;4090;49.270;8.696;2023-07-22T10:39:46;23.30;99.90
8095;DHT22;4090;49.270;8.696;2023-07-22T10:42:31;23.30;99.90
8095;DHT22;4090;49.270;8.696;2023-07-22T10:45:24;23.40;99.90
8095;DHT22;4090;49.270;8.696;2023-07-22T10:48:07;23.60;99.90
8095;DHT22;4090;49.270;8.696;2023-07-22T10:50:50;23.70;99.90
8095;DHT22;4090;49.270;8.696;2023-07-22T10:53:40;23.70;99.90
8095;DHT22;4090;49.270;8.696;2023-07-22T10:56:22;23.70;99.90
8095;DHT22;4090;49.270;8.696;2023-07-22T10:59:05;23.70;99.90
8095;DHT22;4090;49.270;8.696;2023-07-22T11:01:47;23.90;99.90
8095;DHT22;4090;49.270;8.696;2023-07-22T11:04:29;23.80;99.90
8095;DHT22;4090;49.270;8.696;2023-07-22T11:07:15;23.80;99.90
8095;DHT22;4090;49.270;8.696;2023-07-22T11:10:14;23.70;99.90
8095;DHT22;4090;49.270;8.696;2023-07-22T11:12:56;23.80;99.90
8095;DHT22;4090;49.270;8.696;2023-07-22T11:15:38;23.80;99.90
8095;DHT22;4090;49.270;8.696;2023-07-22T11:18:20;23.80;99.90
8095;DHT22;4090;49.270;8.696;2023-07-22T11:21:02;23.80;99.90
8095;DHT22;4090;49.270;8.696;2023-07-22T11:23:48;23.80;99.90
8095;DHT22;4090;49.270;8.696;2023-07-22T11:26:31;23.90;99.90
8095;DHT22;4090;49.270;8.696;2023-07-22T11:29:14;23.80;99.90
8095;DHT22;4090;49.270;8.696;2023-07-22T11:31:56;23.90;99.90
8095;DHT22;4090;49.270;8.696;2023-07-22T11:34:39;24.00;99.90
8095;DHT22;4090;49.270;8.696;2023-07-22T11:37:21;24.10;99.90
8095;DHT22;4090;49.270;8.696;2023-07-22T11:40:04;24.10;99.90
8095;DHT22;4090;49.270;8.696;2023-07-22T11:42:50;24.10;99.90
8095;DHT22;4090;49.270;8.696;2023-07-22T11:45:33;24.10;99.90
8095;DHT22;4090;49.270;8.696;2023-07-22T11:48:14;24.00;99.90
8095;DHT22;4090;49.270;8.696;2023-07-22T11:50:58;24.20;99.90
8095;DHT22;4090;49.270;8.696;2023-07-22T11:53:41;24.20;99.90
8095;DHT22;4090;49.270;8.696;2023-07-22T11:56:24;24.20;99.90
8095;DHT22;4090;49.270;8.696;2023-07-22T11:59:08;24.20;99.90
8095;DHT22;4090;49.270;8.696;2023-07-22T12:01:50;24.30;99.90
8095;DHT22;4090;49.270;8.696;2023-07-22T12:04:34;24.30;99.90
8095;DHT22;4090;49.270;8.696;2023-07-22T12:07:24;24.40;99.90
8095;DHT22;4090;49.270;8.696;2023-07-22T12:10:07;24.40;99.90
8095;DHT22;4090;49.270;8.696;2023-07-22T12:12:50;24.40;99.90
8095;DHT22;4090;49.270;8.696;2023-07-22T12:15:35;24.50;99.90
8095;DHT22;4090;49.270;8.696;2023-07-22T12:18:17;24.70;98.30
8095;DHT22;4090;49.270;8.696;2023-07-22T12:20:58;24.80;98.70
8095;DHT22;4090;49.270;8.696;2023-07-22T12:23:41;25.00;97.10
8095;DHT22;4090;49.270;8.696;2023-07-22T12:26:23;25.10;97.50
8095;DHT22;4090;49.270;8.696;2023-07-22T12:29:05;24.90;98.40
8095;DHT22;4090;49.270;8.696;2023-07-22T12:31:48;24.90;98.10
8095;DHT22;4090;49.270;8.696;2023-07-22T12:34:30;24.90;97.70
8095;DHT22;4090;49.270;8.696;2023-07-22T12:37:12;24.90;98.50
8095;DHT22;4090;49.270;8.696;2023-07-22T12:39:53;24.90;96.70
8095;DHT22;4090;49.270;8.696;2023-07-22T12:42:36;25.10;95.40
8095;DHT22;4090;49.270;8.696;2023-07-22T12:45:17;25.10;95.80
8095;DHT22;4090;49.270;8.696;2023-07-22T12:48:01;25.10;94.60
8095;DHT22;4090;49.270;8.696;2023-07-22T12:50:43;25.20;93.70
8095;DHT22;4090;49.270;8.696;2023-07-22T12:53:25;25.40;92.30
8095;DHT22;4090;49.270;8.696;2023-07-22T12:56:07;25.60;91.90
8095;DHT22;4090;49.270;8.696;2023-07-22T12:58:48;25.60;91.60
8095;DHT22;4090;49.270;8.696;2023-07-22T13:01:30;25.70;91.60
8095;DHT22;4090;49.270;8.696;2023-07-22T13:04:13;25.80;92.00
8095;DHT22;4090;49.270;8.696;2023-07-22T13:06:55;25.70;92.30
8095;DHT22;4090;49.270;8.696;2023-07-22T13:09:37;25.60;93.20
8095;DHT22;4090;49.270;8.696;2023-07-22T13:12:19;25.60;95.70
8095;DHT22;4090;49.270;8.696;2023-07-22T13:15:01;25.70;95.50
8095;DHT22;4090;49.270;8.696;2023-07-22T13:17:43;25.80;94.90
8095;DHT22;4090;49.270;8.696;2023-07-22T13:20:26;25.90;94.70
8095;DHT22;4090;49.270;8.696;2023-07-22T13:23:08;26.00;93.40
8095;DHT22;4090;49.270;8.696;2023-07-22T13:25:50;25.90;94.40
8095;DHT22;4090;49.270;8.696;2023-07-22T13:28:32;25.90;94.80
8095;DHT22;4090;49.270;8.696;2023-07-22T13:31:13;26.00;93.90
8095;DHT22;4090;49.270;8.696;2023-07-22T13:33:55;26.10;93.80
8095;DHT22;4090;49.270;8.696;2023-07-22T13:36:38;26.10;93.80
8095;DHT22;4090;49.270;8.696;2023-07-22T13:39:20;26.10;94.20
8095;DHT22;4090;49.270;8.696;2023-07-22T13:42:02;26.20;92.50
8095;DHT22;4090;49.270;8.696;2023-07-22T13:44:44;26.20;92.30
8095;DHT22;4090;49.270;8.696;2023-07-22T13:47:26;26.30;91.90
8095;DHT22;4090;49.270;8.696;2023-07-22T13:50:09;26.40;90.40
8095;DHT22;4090;49.270;8.696;2023-07-22T13:52:52;26.60;89.20
8095;DHT22;4090;49.270;8.696;2023-07-22T13:55:34;26.70;90.00
8095;DHT22;4090;49.270;8.696;2023-07-22T13:58:16;26.70;90.10
8095;DHT22;4090;49.270;8.696;2023-07-22T14:00:58;26.60;90.50
8095;DHT22;4090;49.270;8.696;2023-07-22T14:03:40;26.60;90.20
8095;DHT22;4090;49.270;8.696;2023-07-22T14:06:22;26.70;89.80
8095;DHT22;4090;49.270;8.696;2023-07-22T14:09:05;26.60;89.40
8095;DHT22;4090;49.270;8.696;2023-07-22T14:11:47;26.60;90.20
8095;DHT22;4090;49.270;8.696;2023-07-22T14:14:29;26.60;90.10
8095;DHT22;4090;49.270;8.696;2023-07-22T14:17:11;26.50;90.40
8095;DHT22;4090;49.270;8.696;2023-07-22T14:19:52;26.50;90.30
8095;DHT22;4090;49.270;8.696;2023-07-22T14:22:34;26.50;90.90
8095;DHT22;4090;49.270;8.696;2023-07-22T14:25:17;26.50;90.30
8095;DHT22;4090;49.270;8.696;2023-07-22T14:28:00;26.60;90.50
8095;DHT22;4090;49.270;8.696;2023-07-22T14:30:42;26.70;89.40
8095;DHT22;4090;49.270;8.696;2023-07-22T14:33:24;26.80;94.60
8095;DHT22;4090;49.270;8.696;2023-07-22T14:36:06;26.90;89.20
8095;DHT22;4090;49.270;8.696;2023-07-22T14:38:48;26.90;89.70
8095;DHT22;4090;49.270;8.696;2023-07-22T14:41:31;26.90;89.00
8095;DHT22;4090;49.270;8.696;2023-07-22T14:44:13;26.90;87.00
8095;DHT22;4090;49.270;8.696;2023-07-22T14:46:55;26.90;87.80
8095;DHT22;4090;49.270;8.696;2023-07-22T14:49:37;27.00;88.40
8095;DHT22;4090;49.270;8.696;2023-07-22T14:52:18;27.00;88.90
8095;DHT22;4090;49.270;8.696;2023-07-22T14:55:00;27.00;90.20
8095;DHT22;4090;49.270;8.696;2023-07-22T14:57:43;27.00;90.20
8095;DHT22;4090;49.270;8.696;2023-07-22T15:00:27;27.10;87.60
8095;DHT22;4090;49.270;8.696;2023-07-22T15:03:09;27.10;88.00
8095;DHT22;4090;49.270;8.696;2023-07-22T15:05:51;27.10;88.80
8095;DHT22;4090;49.270;8.696;2023-07-22T15:08:33;27.10;87.10
8095;DHT22;4090;49.270;8.696;2023-07-22T15:11:15;27.20;87.40
8095;DHT22;4090;49.270;8.696;2023-07-22T15:13:58;27.20;87.10
8095;DHT22;4090;49.270;8.696;2023-07-22T15:16:40;27.30;87.20
8095;DHT22;4090;49.270;8.696;2023-07-22T15:19:22;27.30;87.40
8095;DHT22;4090;49.270;8.696;2023-07-22T15:22:05;27.30;87.40
8095;DHT22;4090;49.270;8.696;2023-07-22T15:24:47;27.40;86.60
8095;DHT22;4090;49.270;8.696;2023-07-22T15:27:29;27.40;87.30
8095;DHT22;4090;49.270;8.696;2023-07-22T15:30:12;27.40;87.50
8095;DHT22;4090;49.270;8.696;2023-07-22T15:32:54;27.40;86.90
8095;DHT22;4090;49.270;8.696;2023-07-22T15:35:36;27.50;86.60
8095;DHT22;4090;49.270;8.696;2023-07-22T15:38:18;27.50;86.20
8095;DHT22;4090;49.270;8.696;2023-07-22T15:40:59;27.60;86.60
8095;DHT22;4090;49.270;8.696;2023-07-22T15:43:42;27.50;86.80
8095;DHT22;4090;49.270;8.696;2023-07-22T15:46:25;27.50;88.00
8095;DHT22;4090;49.270;8.696;2023-07-22T15:49:07;27.50;88.70
8095;DHT22;4090;49.270;8.696;2023-07-22T15:51:49;27.50;87.70
8095;DHT22;4090;49.270;8.696;2023-07-22T15:54:31;27.60;86.60
8095;DHT22;4090;49.270;8.696;2023-07-22T15:57:13;27.60;87.70
8095;DHT22;4090;49.270;8.696;2023-07-22T15:59:55;27.70;85.90
8095;DHT22;4090;49.270;8.696;2023-07-22T16:02:38;27.70;85.90
8095;DHT22;4090;49.270;8.696;2023-07-22T16:05:21;27.60;87.10
8095;DHT22;4090;49.270;8.696;2023-07-22T16:08:03;27.70;85.90
8095;DHT22;4090;49.270;8.696;2023-07-22T16:10:45;27.70;86.90
8095;DHT22;4090;49.270;8.696;2023-07-22T16:13:27;27.60;87.60
8095;DHT22;4090;49.270;8.696;2023-07-22T16:16:09;27.50;87.80
8095;DHT22;4090;49.270;8.696;2023-07-22T16:18:52;27.60;85.70
8095;DHT22;4090;49.270;8.696;2023-07-22T16:21:34;27.70;86.20
8095;DHT22;4090;49.270;8.696;2023-07-22T16:24:16;27.70;86.00
8095;DHT22;4090;49.270;8.696;2023-07-22T16:26:58;27.70;86.50
8095;DHT22;4090;49.270;8.696;2023-07-22T16:29:40;27.60;86.40
8095;DHT22;4090;49.270;8.696;2023-07-22T16:32:22;27.50;87.20
8095;DHT22;4090;49.270;8.696;2023-07-22T16:35:06;27.50;86.70
8095;DHT22;4090;49.270;8.696;2023-07-22T16:37:48;27.50;87.00
8095;DHT22;4090;49.270;8.696;2023-07-22T16:40:30;27.60;83.30
8095;DHT22;4090;49.270;8.696;2023-07-22T16:43:12;27.60;84.70
8095;DHT22;4090;49.270;8.696;2023-07-22T16:45:54;27.50;84.00
8095;DHT22;4090;49.270;8.696;2023-07-22T16:48:35;27.60;83.80
8095;DHT22;4090;49.270;8.696;2023-07-22T16:51:19;27.60;83.60
8095;DHT22;4090;49.270;8.696;2023-07-22T16:54:03;27.60;84.60
8095;DHT22;4090;49.270;8.696;2023-07-22T16:56:45;27.60;84.30
8095;DHT22;4090;49.270;8.696;2023-07-22T16:59:26;27.60;84.60
8095;DHT22;4090;49.270;8.696;2023-07-22T17:02:08;27.70;84.50
8095;DHT22;4090;49.270;8.696;2023-07-22T17:04:50;27.60;85.10
8095;DHT22;4090;49.270;8.696;2023-07-22T17:07:35;27.50;85.70
8095;DHT22;4090;49.270;8.696;2023-07-22T17:10:17;27.50;84.80
8095;DHT22;4090;49.270;8.696;2023-07-22T17:12:59;27.50;84.70
8095;DHT22;4090;49.270;8.696;2023-07-22T17:15:40;27.50;84.60
8095;DHT22;4090;49.270;8.696;2023-07-22T17:18:22;27.50;86.40
8095;DHT22;4090;49.270;8.696;2023-07-22T17:21:04;27.40;86.90
8095;DHT22;4090;49.270;8.696;2023-07-22T17:23:48;27.40;86.30
8095;DHT22;4090;49.270;8.696;2023-07-22T17:26:30;27.30;87.20
8095;DHT22;4090;49.270;8.696;2023-07-22T17:29:11;27.30;86.60
8095;DHT22;4090;49.270;8.696;2023-07-22T17:31:53;27.30;85.80
8095;DHT22;4090;49.270;8.696;2023-07-22T17:34:35;27.40;84.60
8095;DHT22;4090;49.270;8.696;2023-07-22T17:37:17;27.40;85.00
8095;DHT22;4090;49.270;8.696;2023-07-22T17:40:00;27.30;86.60
8095;DHT22;4090;49.270;8.696;2023-07-22T17:42:42;27.30;85.70
8095;DHT22;4090;49.270;8.696;2023-07-22T17:45:24;27.20;87.00